Beulah, Wyoming
Current Conditions -  °F | °C
As of 10:55 AM on Thursday 29 Jan 2015 (Local Time) from KSPF Reporting Station
Clear Clear  
Wind Chill: 34°   Ceiling: Unl
Heat Index: 41°   Visibility: 10mi
Dew Point:   Wind: 12mph
Humidity: 26%   Direction: 310°NW
Pressure: 30.46"   Gusts: NA
Location:  44.54°N, 104.09°W
Report Text: KSPF 291755Z AUTO 31010KT 10SM CLR 05/M13 A3046 RMK AO2
Loading
Personal Weather Stations






























Interactive Weather Map New forecast layout! Learn more

10-Day Weather Forecast

Advertisements
Track Severe Weather on mobile